Aeroporto :
LOGIN :

Iscrizione | Disclaimer

   EN    FR    IT 

 










Sommario :    VFR   VFR Marginale   IFR   IFR Intensivo   IFR Molto Intensivo
Visibilità : 
Base nubi : 
>= 8 km
>= 3000ft
5 / 8 km
1000 / 3000 ft
1500m / 5 km
500 / 1000 ft
800 / 1500m
200 / 500 ft
< 800m
< 200 ft
Simboli :   Temporali  Nebbia  Neve Forte  Precipitazioni Forti  Vento > 20 kt
SIGMETs :   Varie  Temporali  Ghiacco  Turbolenza  Onda orograficha  Ceneri Vulcaniche






- Altitudine del aeroporto : 686 ft


LYKV - Ladevci

ULTIMO METAR :
  • 120030Z VRB02KT 3000 BR OVC010 02/02 Q1011 NOSIG

METARs OBSOLETI :
  • 120000Z VRB01KT 3000 BR OVC010 02/02 Q1011 NOSIG
  • 112330Z 13002KT 3000 BR OVC010 02/02 Q1011 NOSIG
  • 112300Z 16002KT 3000 BR OVC010 02/02 Q1012 NOSIG
  • 112200Z VRB01KT 3000 BR OVC010 02/02 Q1013 NOSIG

TAF TAF LYKV
Valido dal 12 a 00 ore il 13 a 00 ore UTC


112300Z 1200/1224 05004KT 4000 BR OVC010 TX06/1213Z TN01/1206Z
TEMPO 1204/1207 0800 FG BKN003
BECMG 1208/1210 8000 NSW SCT013 BKN033
TEMPO 1215/1224 5000 -RA BKN010 BKN027



MetMap, La meteo Aeronautica in un colpo d'occhio ! - Copyright ORBIFLY Dicembre 2007 - Disclaimer

ORBIFLY MET'MAP TEAM :

Programmazione e sviluppo : Alexandra Zaïnal
Concezione : Baudouin d'Aumeries
Aiuto per la programmazione : Marc-Olivier Méhu
Supporto tecnico e logistico : Manuel Goepfert
Aiuto per la traduzione : Arnaldo La Scala

Contatto : metmap@orbifly.com




FONTI E CREDITI :

   NOAA